Grand Princess — ZCBU5 — position and weather

sailwx.info

Track history (hours):
 
Tides and Currents Weather Stations Pressure Air Temp Water Temp Dewpoint Dewpoint Depression Visibility Wind Speed Wind Dir Waves Ship Positions

Grand Princess

Operator: Princess Cruises

Last reported at 2014-Jul-29 08:33 UTC. Time now 2014-Jul-29 08:43 UTC.
Position N 54°24' W 131°10'.

Length 289.5 m; beam 36 m; draft 8.5 m.

Type: Ship. MMSI: 310327000.

Date/timePositionNaut miles runAvg speedWind from/ knotsBaromVisibWave heightAir tempDewpointWater temp
2014-Jul-29 08:33N 54°24' W 131°10'1514.7
2014-Jul-29 07:33N 54°10' W 131°02'9617.2
2014-Jul-29 02:00N 52°36' W 130°36'22816.9 150 / 201016.9 5.4 0.515.014.214.0
2014-Jul-28 12:33N 49°26' W 127°17'1818.3
2014-Jul-28 11:33N 49°15' W 126°54'1818.4
2014-Jul-28 10:33N 49°04' W 126°32'1818.3
2014-Jul-28 09:33N 48°52' W 126°10'1818.5
2014-Jul-28 08:33N 48°43' W 125°46'1919.4
2014-Jul-28 07:33N 48°33' W 125°21'1919.4
2014-Jul-28 06:33N 48°31' W 124°51'4719.9
2014-Jul-28 04:11N 48°16' W 123°44'1219.4
2014-Jul-28 03:33N 48°13' W 123°26'1312.9
2014-Jul-28 02:33N 48°13' W 123°07'1717.3
2014-Jul-28 01:33N 48°08' W 122°42'1716.7
2014-Jul-28 00:33N 47°54' W 122°29'1616.3
2014-Jul-27 23:33N 47°37' W 122°25'2 1.8
2014-Jul-27 22:33N 47°38' W 122°23'0 0.0
2014-Jul-27 21:33N 47°38' W 122°23'0 0.0
2014-Jul-27 20:29N 47°38' W 122°23'0 0.0
2014-Jul-27 19:32N 47°38' W 122°23'0 0.0
2014-Jul-27 18:32N 47°38' W 122°23'0 0.0
2014-Jul-27 17:31N 47°38' W 122°23'0 0.0
2014-Jul-27 16:31N 47°38' W 122°23'0 0.0
2014-Jul-27 15:31N 47°38' W 122°23'0 0.0
2014-Jul-27 14:27N 47°38' W 122°23'0 0.0
2014-Jul-27 13:33N 47°38' W 122°23'5 5.3
2014-Jul-27 12:33N 47°42' W 122°28'1515.1
2014-Jul-27 11:33N 47°57' W 122°33'1414.3
2014-Jul-27 10:33N 48°09' W 122°44'1514.5
2014-Jul-27 09:33N 48°12' W 123°06'1414.2
2014-Jul-27 08:34N 48°11' W 123°27'1413.1
2014-Jul-27 07:30N 48°25' W 123°24'1 0.3
2014-Jul-27 05:32N 48°25' W 123°23'0 0.0
2014-Jul-27 04:32N 48°25' W 123°23'0 0.0
2014-Jul-27 01:33N 48°25' W 123°23'7 7.1
2014-Jul-27 00:34N 48°18' W 123°25'1614.7
2014-Jul-26 23:30N 48°13' W 123°48'3718.9
2014-Jul-26 21:33N 48°27' W 124°39'2019.7
2014-Jul-26 20:31N 48°29' W 125°09'1819.1
2014-Jul-26 19:33N 48°39' W 125°33'1918.8
2014-Jul-26 18:33N 48°50' W 125°56'1918.7
2014-Jul-26 17:34N 49°00' W 126°20'1919.1
2014-Jul-26 16:33N 49°11' W 126°44'6819.2
2014-Jul-26 13:00N 49°54' W 128°06'31018.3 130 / 181019.910.8 0.515.014.215.0
2014-Jul-25 20:00N 53°48' W 133°36'12317.6 180 / 351014.2 5.4 2.013.511.214.0
2014-Jul-25 13:00N 55°48' W 134°24'4221.1 160 / 291015.3 5.4 1.512.5 9.810.0
2014-Jul-25 11:00N 56°30' W 134°30'7 0.1 1013.3 5.4 1.012.5 9.810.0
2014-Jul-23 09:00N 56°24' W 134°24'145 6.4 170 / 161019.2 5.4 0.513.311.211.0
2014-Jul-22 10:33N 54°51' W 131°08'1413.7
2014-Jul-22 09:31N 54°38' W 131°17'1212.5
2014-Jul-22 08:31N 54°26' W 131°11'1313.8
2014-Jul-22 07:33N 54°13' W 131°03'19316.7
2014-Jul-21 20:00N 51°06' W 129°42'15317.6 170 / 251012.6 5.4 1.513.011.313.0
2014-Jul-21 11:19N 49°16' W 126°56'1419.2
2014-Jul-21 10:33N 49°07' W 126°39'1919.4
2014-Jul-21 09:34N 48°55' W 126°16'1919.5
2014-Jul-21 08:34N 48°44' W 125°51'2019.6
2014-Jul-21 07:34N 48°36' W 125°24'1918.5
2014-Jul-21 06:33N 48°31' W 124°57'3818.9
2014-Jul-21 04:33N 48°19' W 124°03'1818.5
2014-Jul-21 03:33N 48°15' W 123°36'1414.1
2014-Jul-21 02:33N 48°10' W 123°16'1919.0
2014-Jul-21 01:33N 48°12' W 122°48'1919.3
2014-Jul-21 00:33N 47°56' W 122°30'1818.1
2014-Jul-20 23:33N 47°38' W 122°27'2 2.4
2014-Jul-20 22:32N 47°38' W 122°23'0 0.0
2014-Jul-20 21:31N 47°38' W 122°23'0 0.0
2014-Jul-20 20:31N 47°38' W 122°23'0 0.0
2014-Jul-20 19:31N 47°38' W 122°23'0 0.0
2014-Jul-20 18:33N 47°38' W 122°23'0 0.0
2014-Jul-20 17:33N 47°38' W 122°23'0 0.0
2014-Jul-20 16:32N 47°38' W 122°23'0 0.0
2014-Jul-20 15:32N 47°38' W 122°23'0 0.0
2014-Jul-20 14:32N 47°38' W 122°23'0 0.0
2014-Jul-20 13:33N 47°38' W 122°23'5 5.2
2014-Jul-20 12:33N 47°42' W 122°28'1515.3
2014-Jul-20 11:33N 47°57' W 122°33'1515.0
2014-Jul-20 10:33N 48°09' W 122°45'1515.0
2014-Jul-20 09:34N 48°12' W 123°07'1514.5
2014-Jul-20 08:33N 48°11' W 123°29'1413.7
2014-Jul-20 07:33N 48°25' W 123°24'1 0.5
2014-Jul-20 06:34N 48°25' W 123°23'0 0.0
2014-Jul-20 05:33N 48°25' W 123°23'0 0.0
2014-Jul-20 04:33N 48°25' W 123°23'0 0.0
2014-Jul-20 03:29N 48°25' W 123°23'0 0.0
2014-Jul-20 02:29N 48°25' W 123°23'0 0.2
2014-Jul-20 01:33N 48°25' W 123°24'6 6.1
2014-Jul-20 00:33N 48°19' W 123°25'1212.4
2014-Jul-19 23:33N 48°13' W 123°42'1414.4
2014-Jul-19 22:33N 48°16' W 124°03'1616.0
2014-Jul-19 21:33N 48°23' W 124°25'1817.8
2014-Jul-19 20:33N 48°29' W 124°50'1918.8
2014-Jul-19 19:34N 48°31' W 125°18'1919.5
2014-Jul-19 18:34N 48°42' W 125°43'1919.0
2014-Jul-19 17:33N 48°54' W 126°05'1918.9
2014-Jul-19 16:33N 49°05' W 126°29'  
Track history (hours):
 
Tides and Currents Weather Stations Pressure Air Temp Water Temp Dewpoint Dewpoint Depression Visibility Wind Speed Wind Dir Waves Ship Positions

Grand Princess

Operator: Princess Cruises

Last reported at 2014-Jul-29 08:33 UTC. Time now 2014-Jul-29 08:43 UTC.
Position N 54°24' W 131°10'.

Length 289.5 m; beam 36 m; draft 8.5 m.

Type: Ship. MMSI: 310327000.

Date/timePositionNaut miles runAvg speedWind from/ knotsBaromVisibWave heightAir tempDewpointWater temp
2014-Jul-29 08:33N 54°24' W 131°10'1514.7
2014-Jul-29 07:33N 54°10' W 131°02'9617.2
2014-Jul-29 02:00N 52°36' W 130°36'22816.9 150 / 201016.9 5.4 0.515.014.214.0
2014-Jul-28 12:33N 49°26' W 127°17'1818.3
2014-Jul-28 11:33N 49°15' W 126°54'1818.4
2014-Jul-28 10:33N 49°04' W 126°32'1818.3
2014-Jul-28 09:33N 48°52' W 126°10'1818.5
2014-Jul-28 08:33N 48°43' W 125°46'1919.4
2014-Jul-28 07:33N 48°33' W 125°21'1919.4
2014-Jul-28 06:33N 48°31' W 124°51'4719.9
2014-Jul-28 04:11N 48°16' W 123°44'1219.4
2014-Jul-28 03:33N 48°13' W 123°26'1312.9
2014-Jul-28 02:33N 48°13' W 123°07'1717.3
2014-Jul-28 01:33N 48°08' W 122°42'1716.7
2014-Jul-28 00:33N 47°54' W 122°29'1616.3
2014-Jul-27 23:33N 47°37' W 122°25'2 1.8
2014-Jul-27 22:33N 47°38' W 122°23'0 0.0
2014-Jul-27 21:33N 47°38' W 122°23'0 0.0
2014-Jul-27 20:29N 47°38' W 122°23'0 0.0
2014-Jul-27 19:32N 47°38' W 122°23'0 0.0
2014-Jul-27 18:32N 47°38' W 122°23'0 0.0
2014-Jul-27 17:31N 47°38' W 122°23'0 0.0
2014-Jul-27 16:31N 47°38' W 122°23'0 0.0
2014-Jul-27 15:31N 47°38' W 122°23'0 0.0
2014-Jul-27 14:27N 47°38' W 122°23'0 0.0
2014-Jul-27 13:33N 47°38' W 122°23'5 5.3
2014-Jul-27 12:33N 47°42' W 122°28'1515.1
2014-Jul-27 11:33N 47°57' W 122°33'1414.3
2014-Jul-27 10:33N 48°09' W 122°44'1514.5
2014-Jul-27 09:33N 48°12' W 123°06'1414.2
2014-Jul-27 08:34N 48°11' W 123°27'1413.1
2014-Jul-27 07:30N 48°25' W 123°24'1 0.3
2014-Jul-27 05:32N 48°25' W 123°23'0 0.0
2014-Jul-27 04:32N 48°25' W 123°23'0 0.0
2014-Jul-27 01:33N 48°25' W 123°23'7 7.1
2014-Jul-27 00:34N 48°18' W 123°25'1614.7
2014-Jul-26 23:30N 48°13' W 123°48'3718.9
2014-Jul-26 21:33N 48°27' W 124°39'2019.7
2014-Jul-26 20:31N 48°29' W 125°09'1819.1
2014-Jul-26 19:33N 48°39' W 125°33'1918.8
2014-Jul-26 18:33N 48°50' W 125°56'1918.7
2014-Jul-26 17:34N 49°00' W 126°20'1919.1
2014-Jul-26 16:33N 49°11' W 126°44'6819.2
2014-Jul-26 13:00N 49°54' W 128°06'31018.3 130 / 181019.910.8 0.515.014.215.0
2014-Jul-25 20:00N 53°48' W 133°36'12317.6 180 / 351014.2 5.4 2.013.511.214.0
2014-Jul-25 13:00N 55°48' W 134°24'4221.1 160 / 291015.3 5.4 1.512.5 9.810.0
2014-Jul-25 11:00N 56°30' W 134°30'7 0.1 1013.3 5.4 1.012.5 9.810.0
2014-Jul-23 09:00N 56°24' W 134°24'145 6.4 170 / 161019.2 5.4 0.513.311.211.0
2014-Jul-22 10:33N 54°51' W 131°08'1413.7
2014-Jul-22 09:31N 54°38' W 131°17'1212.5
2014-Jul-22 08:31N 54°26' W 131°11'1313.8
2014-Jul-22 07:33N 54°13' W 131°03'19316.7
2014-Jul-21 20:00N 51°06' W 129°42'15317.6 170 / 251012.6 5.4 1.513.011.313.0
2014-Jul-21 11:19N 49°16' W 126°56'1419.2
2014-Jul-21 10:33N 49°07' W 126°39'1919.4
2014-Jul-21 09:34N 48°55' W 126°16'1919.5
2014-Jul-21 08:34N 48°44' W 125°51'2019.6
2014-Jul-21 07:34N 48°36' W 125°24'1918.5
2014-Jul-21 06:33N 48°31' W 124°57'3818.9
2014-Jul-21 04:33N 48°19' W 124°03'1818.5
2014-Jul-21 03:33N 48°15' W 123°36'1414.1
2014-Jul-21 02:33N 48°10' W 123°16'1919.0
2014-Jul-21 01:33N 48°12' W 122°48'1919.3
2014-Jul-21 00:33N 47°56' W 122°30'1818.1
2014-Jul-20 23:33N 47°38' W 122°27'2 2.4
2014-Jul-20 22:32N 47°38' W 122°23'0 0.0
2014-Jul-20 21:31N 47°38' W 122°23'0 0.0
2014-Jul-20 20:31N 47°38' W 122°23'0 0.0
2014-Jul-20 19:31N 47°38' W 122°23'0 0.0
2014-Jul-20 18:33N 47°38' W 122°23'0 0.0
2014-Jul-20 17:33N 47°38' W 122°23'0 0.0
2014-Jul-20 16:32N 47°38' W 122°23'0 0.0
2014-Jul-20 15:32N 47°38' W 122°23'0 0.0
2014-Jul-20 14:32N 47°38' W 122°23'0 0.0
2014-Jul-20 13:33N 47°38' W 122°23'5 5.2
2014-Jul-20 12:33N 47°42' W 122°28'1515.3
2014-Jul-20 11:33N 47°57' W 122°33'1515.0
2014-Jul-20 10:33N 48°09' W 122°45'1515.0
2014-Jul-20 09:34N 48°12' W 123°07'1514.5
2014-Jul-20 08:33N 48°11' W 123°29'1413.7
2014-Jul-20 07:33N 48°25' W 123°24'1 0.5
2014-Jul-20 06:34N 48°25' W 123°23'0 0.0
2014-Jul-20 05:33N 48°25' W 123°23'0 0.0
2014-Jul-20 04:33N 48°25' W 123°23'0 0.0
2014-Jul-20 03:29N 48°25' W 123°23'0 0.0
2014-Jul-20 02:29N 48°25' W 123°23'0 0.2
2014-Jul-20 01:33N 48°25' W 123°24'6 6.1
2014-Jul-20 00:33N 48°19' W 123°25'1212.4
2014-Jul-19 23:33N 48°13' W 123°42'1414.4
2014-Jul-19 22:33N 48°16' W 124°03'1616.0
2014-Jul-19 21:33N 48°23' W 124°25'1817.8
2014-Jul-19 20:33N 48°29' W 124°50'1918.8
2014-Jul-19 19:34N 48°31' W 125°18'1919.5
2014-Jul-19 18:34N 48°42' W 125°43'1919.0
2014-Jul-19 17:33N 48°54' W 126°05'1918.9
2014-Jul-19 16:33N 49°05' W 126°29'  

Dump ship's entire track history